createdAt,value
2019-05-19T00:04:05.655Z,18.67
2019-05-19T00:09:11.496Z,20.57
2019-05-19T00:14:17.363Z,18.07
2019-05-19T00:19:26.697Z,20.00
2019-05-19T00:24:30.472Z,18.70
2019-05-19T00:29:36.226Z,20.37
2019-05-19T00:34:41.783Z,19.93
2019-05-19T00:39:47.437Z,20.47
2019-05-19T00:44:55.820Z,19.20
2019-05-19T00:50:01.495Z,19.53
2019-05-19T00:55:07.692Z,18.13
2019-05-19T01:00:14.133Z,19.23
2019-05-19T01:05:20.769Z,19.03
2019-05-19T01:10:27.017Z,17.50
2019-05-19T01:15:34.186Z,18.80
2019-05-19T01:20:39.930Z,18.47
2019-05-19T01:25:45.921Z,18.27
2019-05-19T01:30:51.791Z,18.97
2019-05-19T01:35:57.431Z,18.30
2019-05-19T01:41:02.996Z,19.83
2019-05-19T01:46:09.369Z,19.33
2019-05-19T01:51:15.039Z,20.63
2019-05-19T01:56:20.538Z,20.17
2019-05-19T02:01:26.858Z,21.93
2019-05-19T02:06:32.404Z,19.93
2019-05-19T02:11:38.177Z,21.10
2019-05-19T02:16:44.936Z,20.50
2019-05-19T02:21:53.271Z,20.27
2019-05-19T02:26:58.993Z,19.13
2019-05-19T02:32:04.937Z,21.37
2019-05-19T02:37:10.675Z,20.57
2019-05-19T02:42:19.677Z,19.10
2019-05-19T02:47:27.150Z,18.53
2019-05-19T02:52:34.064Z,19.07
2019-05-19T02:57:41.338Z,18.93
2019-05-19T03:02:47.060Z,18.70
2019-05-19T03:07:52.443Z,19.30
2019-05-19T03:12:58.156Z,18.60
2019-05-19T03:18:03.979Z,18.07
2019-05-19T03:23:09.801Z,19.23
2019-05-19T03:28:15.528Z,17.43
2019-05-19T03:33:24.575Z,19.07
2019-05-19T03:38:30.320Z,18.50
2019-05-19T03:43:35.920Z,17.50
2019-05-19T03:48:42.287Z,17.10
2019-05-19T03:53:48.117Z,18.10
2019-05-19T03:58:53.686Z,17.57
2019-05-19T04:03:59.795Z,17.53
2019-05-19T04:09:07.067Z,17.93
2019-05-19T04:14:13.250Z,18.00
2019-05-19T04:19:18.904Z,16.83
2019-05-19T04:24:24.606Z,16.30
2019-05-19T04:29:30.186Z,15.23
2019-05-19T04:34:36.041Z,15.47
2019-05-19T04:39:41.572Z,14.80
2019-05-19T04:44:47.312Z,14.93
2019-05-19T04:49:53.177Z,13.47
2019-05-19T04:54:58.999Z,13.33
2019-05-19T05:00:04.628Z,13.17
2019-05-19T05:05:12.242Z,13.13
2019-05-19T05:10:17.932Z,12.27
2019-05-19T05:15:23.924Z,11.93
2019-05-19T05:20:31.273Z,12.60
2019-05-19T05:25:37.344Z,11.73
2019-05-19T05:30:43.957Z,10.67
2019-05-19T05:35:55.612Z,11.00
2019-05-19T05:41:04.343Z,11.00
2019-05-19T05:58:14.546Z,9.00
2019-05-19T06:04:24.859Z,9.33
2019-05-19T06:10:42.702Z,7.97
2019-05-19T06:16:36.760Z,9.07
2019-05-19T06:22:57.282Z,8.13
2019-05-19T06:48:14.846Z,7.57
2019-05-19T07:01:18.011Z,7.80
2019-05-19T07:19:41.878Z,8.10
2019-05-19T07:49:11.348Z,8.87
2019-05-19T08:01:10.006Z,9.27
2019-05-19T09:01:19.118Z,7.60
2019-05-19T09:12:51.737Z,7.17
2019-05-19T09:17:57.200Z,7.07
2019-05-19T09:28:34.374Z,6.77
2019-05-19T09:33:46.474Z,6.00
2019-05-19T09:38:54.316Z,7.07
2019-05-19T09:44:04.769Z,6.63
2019-05-19T09:49:29.366Z,6.20
2019-05-19T09:54:45.317Z,5.60
2019-05-19T09:59:46.226Z,6.33
2019-05-19T10:04:53.800Z,5.83
2019-05-19T10:10:06.074Z,6.13
2019-05-19T10:15:15.051Z,5.83
2019-05-19T10:25:47.363Z,4.50
2019-05-19T10:30:55.518Z,5.13
2019-05-19T10:41:40.823Z,4.63
2019-05-19T10:46:51.058Z,4.73
2019-05-19T10:51:58.343Z,4.93
2019-05-19T10:57:07.228Z,4.80
2019-05-19T11:02:21.553Z,4.93
2019-05-19T11:07:36.307Z,5.17
2019-05-19T11:12:54.484Z,4.70
2019-05-19T11:18:07.429Z,4.97
2019-05-19T11:23:35.309Z,5.20
2019-05-19T11:28:44.336Z,5.30
2019-05-19T11:39:43.466Z,4.87
2019-05-19T11:44:55.187Z,4.73
2019-05-19T11:50:23.382Z,5.20
2019-05-19T11:55:32.139Z,4.70
2019-05-19T12:00:41.616Z,4.90
2019-05-19T12:05:53.338Z,5.17
2019-05-19T12:11:02.915Z,4.97
2019-05-19T12:27:33.692Z,4.37
2019-05-19T12:32:45.808Z,4.50
2019-05-19T12:37:58.216Z,5.13
2019-05-19T12:43:06.172Z,4.87
2019-05-19T12:48:13.938Z,4.03
2019-05-19T12:53:22.460Z,4.87
2019-05-19T12:58:30.809Z,4.40
2019-05-19T13:03:44.264Z,3.80
2019-05-19T13:08:54.389Z,4.60
2019-05-19T13:19:59.875Z,4.10
2019-05-19T13:25:27.097Z,4.50
2019-05-19T13:30:43.522Z,4.97
2019-05-19T13:35:49.848Z,4.70
2019-05-19T13:40:57.047Z,4.67
2019-05-19T13:46:04.827Z,3.50
2019-05-19T13:51:15.539Z,4.17
2019-05-19T13:56:27.211Z,4.20
2019-05-19T14:01:32.894Z,3.73
2019-05-19T14:06:42.421Z,3.57
2019-05-19T14:11:59.930Z,4.00
2019-05-19T14:17:15.295Z,4.63
2019-05-19T14:22:25.441Z,3.57
2019-05-19T14:27:33.225Z,11.40
2019-05-19T14:32:42.025Z,3.27
2019-05-19T14:37:49.870Z,3.50
2019-05-19T14:48:22.057Z,3.97
2019-05-19T14:53:33.866Z,3.70
2019-05-19T14:58:40.359Z,3.80
2019-05-19T15:03:48.993Z,3.60
2019-05-19T15:14:33.460Z,3.37
2019-05-19T15:19:39.290Z,3.23
2019-05-19T15:30:27.021Z,3.37
2019-05-19T15:35:32.707Z,3.40
2019-05-19T15:40:42.458Z,3.50
2019-05-19T15:45:50.830Z,3.60
2019-05-19T15:51:04.693Z,3.80
2019-05-19T15:56:19.773Z,3.60
2019-05-19T16:07:02.012Z,4.10
2019-05-19T16:12:10.831Z,3.50
2019-05-19T16:17:24.384Z,3.70
2019-05-19T16:22:32.266Z,3.63
2019-05-19T16:27:39.477Z,3.83
2019-05-19T16:32:47.452Z,4.43
2019-05-19T16:37:53.231Z,4.10
2019-05-19T16:43:02.204Z,4.03
2019-05-19T16:48:19.651Z,4.17
2019-05-19T16:53:27.381Z,4.33
2019-05-19T16:58:44.900Z,5.30
2019-05-19T17:04:02.655Z,4.73
2019-05-19T17:14:38.249Z,5.07
2019-05-19T17:19:46.931Z,5.07
2019-05-19T17:24:52.856Z,4.07
2019-05-19T17:29:59.641Z,4.53
2019-05-19T17:35:08.064Z,4.77
2019-05-19T17:40:15.311Z,5.03
2019-05-19T17:45:24.896Z,4.33
2019-05-19T17:50:52.811Z,4.40
2019-05-19T17:56:00.471Z,4.50
2019-05-19T18:01:10.079Z,3.87
2019-05-19T18:06:21.760Z,3.63
2019-05-19T18:11:28.687Z,3.87
2019-05-19T18:21:46.143Z,3.70
2019-05-19T18:26:53.904Z,3.90
2019-05-19T18:31:59.829Z,3.73
2019-05-19T18:37:05.969Z,3.20
2019-05-19T18:42:13.796Z,4.23
2019-05-19T18:47:19.293Z,3.93
2019-05-19T18:52:24.717Z,3.40
2019-05-19T18:57:32.471Z,3.90
2019-05-19T19:02:38.132Z,4.20
2019-05-19T19:07:54.594Z,3.57
2019-05-19T19:12:59.875Z,3.93
2019-05-19T19:18:06.117Z,4.27
2019-05-19T19:23:11.477Z,4.17
2019-05-19T19:28:16.753Z,4.37
2019-05-19T19:33:22.141Z,4.37
2019-05-19T19:38:27.497Z,4.00
2019-05-19T19:43:32.795Z,4.57
2019-05-19T19:48:38.268Z,4.33
2019-05-19T19:53:43.519Z,4.83
2019-05-19T19:58:49.387Z,5.17
2019-05-19T20:03:55.064Z,5.00
2019-05-19T20:09:01.511Z,5.20
2019-05-19T20:14:19.527Z,5.20
2019-05-19T20:19:25.075Z,5.63
2019-05-19T20:24:30.344Z,6.23
2019-05-19T20:29:35.945Z,5.20
2019-05-19T20:34:41.290Z,5.77
2019-05-19T20:39:46.679Z,5.47
2019-05-19T20:44:53.339Z,6.17
2019-05-19T20:49:58.643Z,6.13
2019-05-19T20:55:03.885Z,6.00
2019-05-19T21:00:09.761Z,5.50
2019-05-19T21:05:16.728Z,6.90
2019-05-19T21:10:22.003Z,6.93
2019-05-19T21:15:27.321Z,7.30
2019-05-19T21:20:33.759Z,8.03
2019-05-19T21:25:38.976Z,8.00
2019-05-19T21:30:44.666Z,7.60
2019-05-19T21:35:50.909Z,7.33
2019-05-19T21:40:56.228Z,7.07
2019-05-19T21:46:01.478Z,6.60
2019-05-19T21:51:06.850Z,7.47
2019-05-19T21:56:12.057Z,7.70
2019-05-19T22:01:23.170Z,6.67
2019-05-19T22:06:27.178Z,6.87
2019-05-19T22:11:32.453Z,7.23
2019-05-19T22:16:37.642Z,6.80
2019-05-19T22:21:43.400Z,6.83
2019-05-19T22:26:48.756Z,5.67
2019-05-19T22:31:54.423Z,6.27
2019-05-19T22:37:00.675Z,6.40
2019-05-19T22:42:06.069Z,7.57
2019-05-19T22:47:11.555Z,6.27
2019-05-19T22:52:16.924Z,7.13
2019-05-19T22:57:22.127Z,7.30
2019-05-19T23:02:27.387Z,7.60
2019-05-19T23:07:32.543Z,7.23
2019-05-19T23:12:37.852Z,6.90
2019-05-19T23:17:43.385Z,6.90
2019-05-19T23:22:49.273Z,7.13
2019-05-19T23:27:54.500Z,6.90
2019-05-19T23:32:59.740Z,6.90
2019-05-19T23:38:04.932Z,7.53
2019-05-19T23:43:10.149Z,7.40
2019-05-19T23:48:16.932Z,7.10
2019-05-19T23:53:22.321Z,7.57
2019-05-19T23:58:27.572Z,7.30
